Time;durP1;ratioP1;P1;durP2;ratioP2;P2;SDS_P1;SDS_P2;PMS_P1;PMS_P2;Temp;Humidity;BMP_temperature;BMP_pressure;BME280_temperature;BME280_humidity;BME280_pressure;Samples;Min_cycle;Max_cycle;Signal;HPM_P1;HPM_P2
2022/07/09 00:00:54;;;;;;;6.97;3.07;;;;;;;21.48;47.39;100275.16;123581;1099;104300;-75
2022/07/09 00:03:25;;;;;;;3.83;2.90;;;;;;;21.41;47.97;100266.35;123519;1099;104239;-75
2022/07/09 00:05:57;;;;;;;9.75;3.05;;;;;;;21.35;47.25;100269.97;123521;1099;104433;-75
2022/07/09 00:08:28;;;;;;;5.27;2.80;;;;;;;21.31;48.23;100262.02;123589;1099;104769;-74
2022/07/09 00:11:00;;;;;;;3.50;2.83;;;;;;;21.28;47.62;100259.39;123551;1099;104355;-74
2022/07/09 00:13:31;;;;;;;6.23;3.07;;;;;;;21.22;48.40;100256.80;123531;1099;104262;-74
2022/07/09 00:16:02;;;;;;;7.70;2.90;;;;;;;21.17;47.35;100265.72;123507;1099;104261;-74
2022/07/09 00:18:34;;;;;;;7.47;2.90;;;;;;;21.12;47.75;100267.57;123510;1099;104714;-74
2022/07/09 00:21:05;;;;;;;5.03;2.90;;;;;;;21.09;48.71;100266.73;123537;1099;104278;-74
2022/07/09 00:23:37;;;;;;;6.45;3.20;;;;;;;21.04;48.20;100268.58;123492;1098;104262;-74
2022/07/09 00:26:08;;;;;;;5.47;2.70;;;;;;;20.98;48.25;100257.05;123574;1099;104328;-74
2022/07/09 00:28:40;;;;;;;3.13;2.83;;;;;;;20.93;48.80;100258.89;123524;1098;104315;-73
2022/07/09 00:31:11;;;;;;;6.37;3.00;;;;;;;20.89;48.54;100256.28;123435;1099;109172;-74
2022/07/09 00:33:42;;;;;;;4.50;2.50;;;;;;;20.84;48.32;100256.33;123611;1099;104314;-74
2022/07/09 00:36:14;;;;;;;7.27;3.10;;;;;;;20.81;48.85;100257.23;123529;1099;104268;-74
2022/07/09 00:38:45;;;;;;;4.83;2.47;;;;;;;20.79;49.17;100251.03;123528;1098;104264;-74
2022/07/09 00:41:16;;;;;;;5.35;2.75;;;;;;;20.76;49.13;100253.73;123480;1099;104319;-74
2022/07/09 00:43:51;;;;;;;4.30;2.73;;;;;;;20.70;49.34;100253.80;123444;1099;104396;-74
2022/07/09 00:46:22;;;;;;;4.60;3.00;;;;;;;20.64;49.52;100253.81;123558;1099;104288;-73
2022/07/09 00:48:54;;;;;;;9.23;2.90;;;;;;;20.60;49.80;100252.06;123499;1099;104281;-74
2022/07/09 00:51:25;;;;;;;6.37;3.23;;;;;;;20.55;49.58;100253.91;123490;1099;104239;-74
2022/07/09 00:53:57;;;;;;;5.15;3.00;;;;;;;20.53;49.82;100255.70;123517;1099;104648;-74
2022/07/09 00:56:31;;;;;;;6.60;3.07;;;;;;;20.52;49.68;100245.94;123495;1099;104405;-74
2022/07/09 00:59:04;;;;;;;8.03;2.80;;;;;;;20.50;49.90;100251.28;123526;1099;104216;-74
2022/07/09 01:01:38;;;;;;;6.07;2.80;;;;;;;20.49;49.55;100257.53;123593;1099;104235;-74
2022/07/09 01:04:09;;;;;;;8.53;3.50;;;;;;;20.42;49.86;100264.67;123555;1099;104329;-74
2022/07/09 01:06:41;;;;;;;9.03;3.10;;;;;;;20.35;50.35;100249.66;123553;1099;104625;-74
2022/07/09 01:09:13;;;;;;;4.57;2.90;;;;;;;20.29;50.70;100252.37;123462;1099;104390;-74
2022/07/09 01:11:44;;;;;;;6.70;3.17;;;;;;;20.23;50.62;100247.09;123470;1099;104382;-74
2022/07/09 01:14:16;;;;;;;8.97;3.30;;;;;;;20.17;51.33;100248.01;123185;1099;104427;-74
2022/07/09 01:16:57;;;;;;;4.30;2.80;;;;;;;20.13;51.03;100242.72;123213;1099;104476;-73
2022/07/09 01:19:29;;;;;;;5.63;3.00;;;;;;;20.05;51.25;100240.98;123276;1099;104411;-74
2022/07/09 01:22:01;;;;;;;12.27;3.43;;;;;;;19.99;51.87;100246.38;123286;1100;104450;-75
2022/07/09 01:24:32;;;;;;;9.60;3.13;;;;;;;19.95;51.80;100241.09;123186;1099;104466;-74
2022/07/09 01:27:06;;;;;;;6.80;3.03;;;;;;;19.90;52.41;100235.80;123236;1102;104309;-74
2022/07/09 01:29:37;;;;;;;10.85;3.50;;;;;;;19.85;53.10;100237.58;123287;1102;104206;-75
2022/07/09 01:32:09;;;;;;;5.47;3.10;;;;;;;19.80;52.83;100226.96;123146;1102;104293;-74
2022/07/09 01:34:41;;;;;;;7.93;3.77;;;;;;;19.79;52.05;100229.63;123354;1102;104507;-74
2022/07/09 01:37:12;;;;;;;7.77;3.40;;;;;;;19.79;52.35;100240.28;123416;1102;104226;-74
2022/07/09 01:39:51;;;;;;;7.73;3.13;;;;;;;19.77;52.86;100242.08;123457;1102;104418;-75
2022/07/09 01:42:22;;;;;;;7.77;3.33;;;;;;;19.73;53.59;100243.85;123469;1102;104370;-74
2022/07/09 01:44:54;;;;;;;7.13;3.40;;;;;;;19.72;53.16;100239.41;123297;1102;104396;-74
2022/07/09 01:47:25;;;;;;;5.73;2.97;;;;;;;19.71;52.83;100238.53;123302;1100;104556;-74
2022/07/09 01:49:56;;;;;;;5.40;3.17;;;;;;;19.71;53.48;100238.53;123228;1102;104312;-74
2022/07/09 01:52:29;;;;;;;7.97;3.23;;;;;;;19.69;53.17;100240.30;123263;1099;104428;-74
2022/07/09 01:55:00;;;;;;;4.70;2.93;;;;;;;19.66;53.56;100234.99;123572;1099;104245;-74
2022/07/09 01:57:32;;;;;;;11.03;3.50;;;;;;;19.59;53.83;100238.60;123504;1099;104259;-74
2022/07/09 02:00:05;;;;;;;6.97;3.40;;;;;;;19.56;53.27;100239.49;123454;1099;104414;-74
2022/07/09 02:02:43;;;;;;;5.67;3.10;;;;;;;19.53;53.75;100243.95;123450;1098;104220;-74
2022/07/09 02:05:15;;;;;;;6.27;2.90;;;;;;;19.49;53.70;100250.17;123460;1099;104271;-74
2022/07/09 02:07:46;;;;;;;6.70;3.20;;;;;;;19.45;53.75;100261.74;123457;1099;104267;-74
2022/07/09 02:10:18;;;;;;;5.50;3.03;;;;;;;19.42;54.25;100256.44;123450;1099;104213;-74
2022/07/09 02:12:49;;;;;;;9.50;3.25;;;;;;;19.39;54.46;100254.66;123454;1099;104339;-74
2022/07/09 02:15:21;;;;;;;6.87;3.43;;;;;;;19.35;53.92;100250.23;123517;1099;104265;-74
2022/07/09 02:17:53;;;;;;;5.60;3.10;;;;;;;19.33;53.93;100252.91;123490;1099;104337;-74
2022/07/09 02:20:24;;;;;;;6.77;3.00;;;;;;;19.29;54.26;100250.26;123535;1099;104264;-74
2022/07/09 02:22:56;;;;;;;7.17;3.30;;;;;;;19.26;54.60;100253.84;123528;1099;104204;-74
2022/07/09 02:25:27;;;;;;;5.93;3.20;;;;;;;19.26;54.13;100248.52;123421;1099;104412;-74
2022/07/09 02:27:58;;;;;;;6.90;3.13;;;;;;;19.27;54.33;100254.71;123502;1099;104692;-74
2022/07/09 02:30:30;;;;;;;6.15;3.00;;;;;;;19.28;54.69;100252.05;123507;1099;104277;-73
2022/07/09 02:33:02;;;;;;;8.13;3.70;;;;;;;19.30;55.04;100241.40;123528;1099;104296;-74
2022/07/09 02:35:35;;;;;;;5.60;3.20;;;;;;;19.30;55.27;100247.59;123538;1099;104242;-74
2022/07/09 02:38:06;;;;;;;4.28;3.10;;;;;;;19.27;55.27;100244.07;123415;1099;104281;-74
2022/07/09 02:40:38;;;;;;;8.40;3.47;;;;;;;19.24;54.44;100244.08;123537;1099;104648;-74
2022/07/09 02:43:09;;;;;;;5.77;3.53;;;;;;;19.24;54.62;100244.95;123474;1099;104655;-74
2022/07/09 02:45:41;;;;;;;5.20;3.40;;;;;;;19.26;54.86;100244.95;123542;1099;104357;-74
2022/07/09 02:48:12;;;;;;;7.27;3.40;;;;;;;19.25;54.92;100238.75;123521;1099;104238;-74
2022/07/09 02:50:43;;;;;;;6.23;3.03;;;;;;;19.24;55.24;100236.10;123433;1099;104398;-74
2022/07/09 02:53:15;;;;;;;6.70;3.10;;;;;;;19.24;54.91;100241.42;123505;1099;104360;-74
2022/07/09 02:55:46;;;;;;;6.40;3.10;;;;;;;19.24;55.16;100231.66;123499;1099;104287;-74
2022/07/09 02:58:18;;;;;;;4.67;3.10;;;;;;;19.26;55.34;100229.90;123485;1099;104271;-74
2022/07/09 03:00:49;;;;;;;7.90;3.50;;;;;;;19.27;55.14;100226.33;123469;1099;104647;-74
2022/07/09 03:03:23;;;;;;;8.20;3.53;;;;;;;19.27;55.72;100228.11;123440;1099;104389;-74
2022/07/09 03:05:54;;;;;;;6.60;3.35;;;;;;;19.26;55.44;100221.02;123567;1098;104411;-74
2022/07/09 03:08:25;;;;;;;7.37;3.40;;;;;;;19.25;55.46;100211.28;123499;1099;104264;-75
2022/07/09 03:10:57;;;;;;;9.87;3.43;;;;;;;19.28;55.40;100220.13;123584;1099;104350;-74
2022/07/09 03:13:28;;;;;;;5.13;3.17;;;;;;;19.27;56.10;100217.47;123539;1099;104804;-75
2022/07/09 03:15:59;;;;;;;5.63;3.40;;;;;;;19.27;56.18;100214.81;123539;1099;104261;-74
2022/07/09 03:18:31;;;;;;;5.07;3.60;;;;;;;19.30;56.53;100220.99;123483;1099;104293;-75
2022/07/09 03:21:02;;;;;;;6.80;3.27;;;;;;;19.30;56.12;100215.67;123525;1099;104207;-75
2022/07/09 03:23:34;;;;;;;6.33;3.50;;;;;;;19.33;56.61;100212.12;123601;1099;104236;-75
2022/07/09 03:26:07;;;;;;;6.93;3.33;;;;;;;19.35;56.52;100212.98;123529;1098;104325;-75
2022/07/09 03:28:38;;;;;;;7.43;3.20;;;;;;;19.37;57.09;100214.77;123542;1099;104395;-76
2022/07/09 03:31:10;;;;;;;8.97;3.43;;;;;;;19.42;56.48;100212.08;123505;1099;104411;-75
2022/07/09 03:33:41;;;;;;;6.90;3.13;;;;;;;19.46;56.15;100210.28;123727;1099;104258;-76
2022/07/09 03:36:13;;;;;;;6.77;3.30;;;;;;;19.53;56.31;100217.34;123486;1099;104267;-75
2022/07/09 03:38:44;;;;;;;7.50;3.70;;;;;;;19.58;56.67;100216.41;123541;1099;104342;-73
2022/07/09 03:41:15;;;;;;;10.83;3.63;;;;;;;19.65;56.64;100206.63;123515;1098;104647;-74
2022/07/09 03:43:47;;;;;;;8.80;3.30;;;;;;;19.74;56.66;100203.00;123501;1099;104724;-74
2022/07/09 03:46:18;;;;;;;8.63;3.33;;;;;;;19.79;56.63;100203.01;123519;1099;104267;-74
2022/07/09 03:48:49;;;;;;;6.43;3.10;;;;;;;19.85;55.77;100194.98;123565;1098;104315;-74
2022/07/09 03:51:21;;;;;;;6.83;3.30;;;;;;;19.92;55.98;100196.72;123492;1099;104795;-74
2022/07/09 03:53:53;;;;;;;9.40;3.70;;;;;;;20.00;56.46;100208.18;123475;1099;104245;-74
2022/07/09 03:56:25;;;;;;;9.37;3.23;;;;;;;20.06;56.08;100208.14;123559;1099;104274;-73
2022/07/09 03:58:56;;;;;;;7.77;3.50;;;;;;;20.12;55.85;100209.87;123513;1099;104239;-74
2022/07/09 04:01:28;;;;;;;9.10;3.73;;;;;;;20.19;56.00;100208.03;123487;1098;104622;-74
2022/07/09 04:03:59;;;;;;;8.97;3.70;;;;;;;20.28;55.86;100213.29;123499;1099;104165;-74
2022/07/09 04:06:30;;;;;;;10.20;4.03;;;;;;;20.33;55.53;100211.45;123564;1099;104670;-74
2022/07/09 04:09:04;;;;;;;4.53;3.10;;;;;;;20.38;55.11;100214.98;123529;1099;104290;-74
2022/07/09 04:11:35;;;;;;;6.95;3.15;;;;;;;20.39;54.95;100210.53;123724;1099;104251;-74
2022/07/09 04:14:07;;;;;;;7.00;3.03;;;;;;;20.42;55.71;100210.50;123714;1098;104310;-74
2022/07/09 04:16:38;;;;;;;8.13;3.33;;;;;;;20.48;55.35;100219.31;123778;1099;104246;-74
2022/07/09 04:19:09;;;;;;;5.37;3.30;;;;;;;20.47;54.94;100220.23;123724;1099;104347;-73
2022/07/09 04:21:41;;;;;;;9.47;3.27;;;;;;;20.51;54.69;100217.54;123784;1099;104293;-74
2022/07/09 04:24:15;;;;;;;9.43;3.37;;;;;;;20.54;54.59;100215.72;123761;1099;104264;-74
2022/07/09 04:26:46;;;;;;;7.57;3.20;;;;;;;20.60;55.02;100212.09;123821;1099;104261;-73
2022/07/09 04:29:18;;;;;;;5.43;3.20;;;;;;;20.64;55.10;100221.83;123683;1099;104386;-73
2022/07/09 04:31:49;;;;;;;9.70;3.63;;;;;;;20.71;55.05;100218.25;123547;1099;104265;-74
2022/07/09 04:34:21;;;;;;;7.87;3.27;;;;;;;20.76;55.55;100221.73;123689;1099;104248;-74
2022/07/09 04:36:54;;;;;;;9.90;3.43;;;;;;;20.80;54.53;100218.15;123527;1099;104245;-76
2022/07/09 04:39:25;;;;;;;10.87;3.83;;;;;;;20.82;55.36;100213.67;123669;1099;104277;-74
2022/07/09 04:41:57;;;;;;;4.73;3.20;;;;;;;20.90;54.88;100215.38;123726;1099;104258;-75
2022/07/09 04:44:28;;;;;;;8.83;3.20;;;;;;;20.94;54.92;100215.33;123662;1099;104389;-74
2022/07/09 04:46:59;;;;;;;9.70;3.40;;;;;;;20.98;55.22;100210.84;123733;1099;104322;-75
2022/07/09 04:49:31;;;;;;;6.17;3.40;;;;;;;21.03;54.92;100216.12;123735;1099;104357;-75
2022/07/09 04:52:02;;;;;;;6.80;3.77;;;;;;;21.07;55.25;100217.86;123597;1098;104172;-75
2022/07/09 04:54:33;;;;;;;13.53;3.67;;;;;;;21.08;54.79;100206.27;123596;1099;104329;-74
2022/07/09 04:57:06;;;;;;;12.07;3.17;;;;;;;21.14;54.97;100204.39;123526;1099;104457;-74
2022/07/09 04:59:37;;;;;;;5.47;3.47;;;;;;;21.23;54.36;100206.08;123481;1099;104264;-74
2022/07/09 05:02:09;;;;;;;5.97;3.30;;;;;;;21.27;54.58;100201.58;123720;1099;104718;-75
2022/07/09 05:04:40;;;;;;;11.00;3.43;;;;;;;21.29;54.36;100202.46;123768;1099;104293;-74
2022/07/09 05:07:12;;;;;;;6.13;3.00;;;;;;;21.28;54.00;100200.68;123817;1099;104163;-74
2022/07/09 05:09:43;;;;;;;5.03;3.23;;;;;;;21.27;54.53;100198.91;123827;1099;104211;-75
2022/07/09 05:12:15;;;;;;;7.83;3.57;;;;;;;21.28;54.57;100200.68;123777;1099;104217;-74
2022/07/09 05:14:46;;;;;;;4.90;3.40;;;;;;;21.32;54.14;100197.08;123715;1099;104345;-74
2022/07/09 05:17:18;;;;;;;7.00;3.60;;;;;;;21.41;54.48;100198.72;123616;1098;104235;-74
2022/07/09 05:19:49;;;;;;;7.70;3.60;;;;;;;21.50;53.61;100201.30;123564;1099;104275;-75
2022/07/09 05:22:22;;;;;;;7.27;3.57;;;;;;;21.61;53.73;100190.47;123501;1099;104322;-75
2022/07/09 05:24:52;;;;;;;;;;;;;;;21.70;53.99;100190.34;123562;1099;104341;-74
2022/07/09 05:27:24;;;;;;;6.60;3.23;;;;;;;21.76;53.45;100187.58;123549;1099;104312;-74
2022/07/09 05:29:55;;;;;;;9.63;3.60;;;;;;;21.83;54.13;100189.26;123488;1099;104354;-75
2022/07/09 05:32:27;;;;;;;9.03;3.47;;;;;;;21.88;53.70;100182.05;123609;1099;104323;-74
2022/07/09 05:34:58;;;;;;;9.17;3.50;;;;;;;21.96;53.05;100186.39;123515;1098;104418;-75
2022/07/09 05:37:29;;;;;;;8.30;3.47;;;;;;;21.95;52.84;100184.62;123537;1099;104271;-75
2022/07/09 05:40:05;;;;;;;6.77;3.23;;;;;;;22.02;52.31;100172.94;123779;1099;104344;-74
2022/07/09 05:42:36;;;;;;;5.43;2.90;;;;;;;22.09;52.52;100179.92;123744;1099;104226;-75
2022/07/09 05:45:10;;;;;;;4.83;3.20;;;;;;;22.17;52.80;100177.99;123736;1099;104320;-75
2022/07/09 05:47:42;;;;;;;5.07;3.30;;;;;;;22.20;52.70;100183.28;123738;1099;108195;-75
2022/07/09 05:50:13;;;;;;;5.20;3.23;;;;;;;22.21;52.33;100185.06;123659;1099;104297;-75
2022/07/09 05:52:45;;;;;;;7.30;3.40;;;;;;;22.23;52.99;100185.03;123645;1099;104335;-75
2022/07/09 05:55:17;;;;;;;8.10;3.25;;;;;;;22.26;52.87;100171.62;123502;1099;104264;-74
2022/07/09 05:57:49;;;;;;;8.80;3.57;;;;;;;22.32;52.99;100171.55;123538;1098;104397;-74
2022/07/09 06:00:20;;;;;;;5.43;3.20;;;;;;;22.41;52.89;100170.50;123544;1099;104304;-75
2022/07/09 06:02:52;;;;;;;7.63;3.30;;;;;;;22.51;52.26;100173.88;123544;1099;104342;-75
2022/07/09 06:05:23;;;;;;;5.43;3.20;;;;;;;22.59;52.40;100172.84;123638;1099;104628;-76
2022/07/09 06:07:54;;;;;;;7.70;3.00;;;;;;;22.70;52.91;100185.11;123525;1099;104219;-76
2022/07/09 06:10:27;;;;;;;6.03;3.40;;;;;;;22.78;51.80;100185.83;123478;1099;104293;-76
2022/07/09 06:12:58;;;;;;;8.80;3.20;;;;;;;22.79;52.30;100195.63;123526;1099;104418;-76
2022/07/09 06:15:30;;;;;;;8.50;3.60;;;;;;;22.80;52.31;100182.22;123663;1099;104351;-75
2022/07/09 06:18:01;;;;;;;6.67;3.40;;;;;;;22.79;51.44;100184.92;123593;1099;104345;-75
2022/07/09 06:20:33;;;;;;;6.47;3.30;;;;;;;22.86;51.48;100191.93;123606;1099;104373;-75
2022/07/09 06:23:05;;;;;;;5.77;3.30;;;;;;;22.95;51.88;100181.05;123582;1099;104409;-74
2022/07/09 06:25:37;;;;;;;8.70;3.37;;;;;;;23.03;51.41;100183.56;123568;1099;104413;-75
2022/07/09 06:28:08;;;;;;;7.27;3.67;;;;;;;23.07;51.90;100176.34;123603;1099;104239;-74
2022/07/09 06:30:43;;;;;;;11.00;3.67;;;;;;;23.11;51.46;100170.93;123669;1099;104294;-74
2022/07/09 06:33:15;;;;;;;8.67;3.50;;;;;;;23.14;50.89;100184.25;123669;1099;104669;-74
2022/07/09 06:35:46;;;;;;;8.83;3.87;;;;;;;23.19;51.03;100170.77;123740;1099;104396;-74
2022/07/09 06:38:17;;;;;;;5.03;3.40;;;;;;;23.24;50.94;100184.05;123677;1098;105550;-75
2022/07/09 06:40:49;;;;;;;8.20;3.47;;;;;;;23.29;50.63;100176.79;123934;1099;104359;-75
2022/07/09 06:43:23;;;;;;;10.67;3.30;;;;;;;23.35;50.30;100168.63;123771;1099;104211;-75
2022/07/09 06:45:57;;;;;;;8.60;3.80;;;;;;;23.44;50.51;100168.42;123711;1099;104258;-75
2022/07/09 06:48:28;;;;;;;5.53;3.10;;;;;;;23.52;50.16;100165.57;123385;1099;104297;-74
2022/07/09 06:51:00;;;;;;;7.20;3.33;;;;;;;23.63;49.59;100162.64;123615;1098;104637;-75
2022/07/09 06:53:33;;;;;;;6.53;3.27;;;;;;;23.74;49.23;100173.11;123620;1099;105377;-75
2022/07/09 06:56:04;;;;;;;9.78;3.25;;;;;;;23.84;48.76;100174.66;123724;1099;104257;-75
2022/07/09 06:58:35;;;;;;;15.13;3.50;;;;;;;23.94;48.68;100168.17;123764;1099;104643;-74
2022/07/09 07:01:07;;;;;;;7.43;3.27;;;;;;;24.07;48.62;100170.55;123709;1099;104388;-74
2022/07/09 07:03:38;;;;;;;6.83;3.20;;;;;;;24.16;47.83;100172.99;123776;1099;104328;-75
2022/07/09 07:06:10;;;;;;;8.40;3.20;;;;;;;24.29;47.31;100178.91;123696;1099;104396;-75
2022/07/09 07:08:41;;;;;;;5.07;3.30;;;;;;;24.39;47.36;100189.36;123823;1099;104657;-74
2022/07/09 07:11:12;;;;;;;4.50;3.00;;;;;;;24.45;46.95;100163.29;123415;1099;104319;-75
2022/07/09 07:13:44;;;;;;;8.33;3.40;;;;;;;24.61;47.01;100164.67;123629;1098;104341;-75
2022/07/09 07:16:15;;;;;;;8.83;3.00;;;;;;;24.78;46.57;100182.09;123616;1099;104326;-75
2022/07/09 07:18:47;;;;;;;5.63;3.10;;;;;;;24.83;46.25;100177.50;123721;1099;104238;-75
2022/07/09 07:21:19;;;;;;;6.43;2.80;;;;;;;24.79;46.13;100175.81;123771;1099;104277;-75
2022/07/09 07:23:50;;;;;;;3.73;3.03;;;;;;;24.73;46.53;100172.39;123945;1098;104360;-76
2022/07/09 07:26:22;;;;;;;4.90;2.73;;;;;;;24.80;46.43;100181.13;123791;1099;104651;-75
2022/07/09 07:28:54;;;;;;;4.80;2.90;;;;;;;24.83;45.68;100182.86;123593;1099;104409;-75
2022/07/09 07:31:25;;;;;;;4.63;3.20;;;;;;;24.91;45.90;100183.52;123607;1099;104355;-75
2022/07/09 07:33:56;;;;;;;6.90;3.03;;;;;;;25.12;45.62;100187.39;123574;1099;104360;-75
2022/07/09 07:36:29;;;;;;;4.80;3.03;;;;;;;25.30;45.60;100181.48;123651;1099;104287;-75
2022/07/09 07:39:00;;;;;;;6.87;3.20;;;;;;;25.55;45.52;100166.42;123612;1098;105604;-75
2022/07/09 07:41:32;;;;;;;9.20;3.17;;;;;;;25.74;44.60;100175.67;123673;1099;104370;-74
2022/07/09 07:44:03;;;;;;;7.20;3.10;;;;;;;25.96;44.97;100185.69;123597;1099;104236;-73
2022/07/09 07:46:35;;;;;;;4.73;3.10;;;;;;;26.06;43.59;100176.44;123795;1099;104232;-75
2022/07/09 07:49:06;;;;;;;6.57;3.30;;;;;;;26.23;43.57;100185.76;123460;1099;104351;-74
2022/07/09 07:51:38;;;;;;;4.60;3.27;;;;;;;26.35;42.80;100177.23;123659;1098;104162;-75
2022/07/09 07:54:09;;;;;;;4.85;3.30;;;;;;;26.42;43.05;100172.55;123555;1099;104454;-74
2022/07/09 07:56:41;;;;;;;6.30;3.10;;;;;;;26.53;42.27;100168.52;123744;1099;104338;-74
2022/07/09 07:59:15;;;;;;;3.87;2.70;;;;;;;26.71;42.21;100163.47;123591;1099;104278;-74
2022/07/09 08:01:46;;;;;;;4.50;3.20;;;;;;;26.89;42.57;100161.89;123681;1099;104166;-74
2022/07/09 08:04:17;;;;;;;6.25;3.40;;;;;;;27.05;42.22;100162.19;123643;1098;104344;-75
2022/07/09 08:06:49;;;;;;;6.77;3.13;;;;;;;27.22;42.21;100170.52;123605;1099;104274;-76
2022/07/09 08:09:20;;;;;;;4.97;2.80;;;;;;;27.30;41.08;100164.84;123547;1099;104802;-75
2022/07/09 08:11:52;;;;;;;5.30;3.25;;;;;;;27.40;41.39;100151.91;123582;1099;104341;-74
2022/07/09 08:14:24;;;;;;;8.97;3.00;;;;;;;27.47;41.13;100156.09;123529;1099;105345;-74
2022/07/09 08:16:55;;;;;;;5.40;3.00;;;;;;;27.49;40.32;100156.93;123538;1099;104239;-75
2022/07/09 08:19:26;;;;;;;7.13;3.03;;;;;;;27.52;40.43;100156.81;123619;1099;104316;-75
2022/07/09 08:21:58;;;;;;;5.50;3.30;;;;;;;27.65;40.62;100150.93;123545;1099;104216;-75
2022/07/09 08:24:29;;;;;;;6.37;3.00;;;;;;;27.86;40.98;100149.14;123541;1099;104337;-74
2022/07/09 08:27:01;;;;;;;8.27;3.27;;;;;;;27.96;40.67;100139.78;123594;1099;104251;-75
2022/07/09 08:29:32;;;;;;;6.13;3.00;;;;;;;28.05;39.80;100135.80;123580;1099;104290;-74
2022/07/09 08:32:04;;;;;;;7.90;3.00;;;;;;;28.08;39.60;100141.06;123517;1099;104213;-74
2022/07/09 08:34:35;;;;;;;5.23;3.10;;;;;;;28.23;39.93;100142.23;123617;1099;104345;-74
2022/07/09 08:37:07;;;;;;;5.03;3.20;;;;;;;28.43;39.70;100144.92;123589;1099;104265;-74
2022/07/09 08:39:39;;;;;;;5.77;2.97;;;;;;;28.55;39.12;100138.13;123280;1099;104309;-74
2022/07/09 08:42:12;;;;;;;5.63;2.87;;;;;;;28.68;39.03;100127.67;123515;1099;104686;-75
2022/07/09 08:44:44;;;;;;;;;;;;;;;28.75;38.13;100142.66;123590;1099;104264;-75
2022/07/09 08:47:17;;;;;;;4.85;3.00;;;;;;;28.57;38.27;100149.72;123528;1099;104267;-75
2022/07/09 08:49:47;;;;;;;;;;;;;;;28.55;38.12;100140.82;123592;1099;104268;-75
2022/07/09 08:52:21;;;;;;;6.43;3.30;;;;;;;28.56;37.97;100150.65;123559;1098;104257;-76
2022/07/09 08:54:53;;;;;;;10.83;3.10;;;;;;;28.56;37.89;100134.45;123609;1099;104269;-75
2022/07/09 08:57:24;;;;;;;6.57;3.07;;;;;;;28.65;38.01;100138.61;123512;1099;104261;-75
2022/07/09 08:59:56;;;;;;;6.43;2.97;;;;;;;28.64;38.23;100134.14;123461;1099;104511;-74
2022/07/09 09:02:27;;;;;;;15.27;3.50;;;;;;;28.76;38.36;100124.63;123561;1099;104280;-74
2022/07/09 09:04:59;;;;;;;5.20;2.80;;;;;;;28.79;38.27;100125.34;123556;1099;104306;-74
2022/07/09 09:07:31;;;;;;;5.63;2.97;;;;;;;28.67;37.26;100126.81;123571;1099;105101;-74
2022/07/09 09:10:02;;;;;;;8.87;3.30;;;;;;;28.65;37.77;100123.28;123579;1099;104350;-74
2022/07/09 09:12:34;;;;;;;6.35;3.10;;;;;;;28.65;37.16;100127.81;123571;1099;104307;-74
2022/07/09 09:15:09;;;;;;;7.50;2.97;;;;;;;28.62;37.38;100117.16;123484;1099;104370;-75
2022/07/09 09:17:46;;;;;;;5.13;3.00;;;;;;;28.58;37.29;100120.89;123601;1099;104226;-75
2022/07/09 09:20:19;;;;;;;7.20;3.17;;;;;;;28.48;36.47;100115.91;123532;1099;104261;-75
2022/07/09 09:22:58;;;;;;;6.20;3.10;;;;;;;28.37;36.84;100123.61;123512;1098;104418;-74
2022/07/09 09:25:30;;;;;;;4.20;2.83;;;;;;;28.42;37.28;100128.80;123654;1099;104409;-75
2022/07/09 09:28:02;;;;;;;8.70;3.25;;;;;;;28.56;36.82;100112.86;123789;1099;104219;-74
2022/07/09 09:30:41;;;;;;;6.70;3.20;;;;;;;28.59;36.99;100128.95;123605;1099;104379;-74
2022/07/09 09:33:18;;;;;;;4.40;3.20;;;;;;;28.51;37.06;100117.60;123743;1098;104238;-75
2022/07/09 09:35:50;;;;;;;6.50;2.97;;;;;;;28.45;37.35;100120.58;123734;1099;104517;-75
2022/07/09 09:38:29;;;;;;;3.58;2.70;;;;;;;28.41;37.29;100124.38;123711;1099;104364;-75
2022/07/09 09:41:00;;;;;;;7.73;3.27;;;;;;;28.25;36.81;100114.26;123720;1099;104387;-75
2022/07/09 09:43:34;;;;;;;5.73;3.20;;;;;;;28.19;37.21;100109.13;123391;1099;104328;-75
2022/07/09 09:46:06;;;;;;;5.47;3.10;;;;;;;28.23;37.62;100112.56;123942;1099;104262;-75
2022/07/09 09:48:42;;;;;;;6.13;3.10;;;;;;;28.25;37.40;100111.56;123906;1099;104501;-75
2022/07/09 09:51:17;;;;;;;11.30;3.40;;;;;;;28.36;37.23;100107.49;123913;1099;104334;-75
2022/07/09 09:53:51;;;;;;;8.13;3.10;;;;;;;28.38;36.96;100109.19;123981;1098;104210;-75
2022/07/09 09:56:24;;;;;;;6.70;3.17;;;;;;;28.52;36.76;100097.78;123869;1099;104191;-75
2022/07/09 09:58:57;;;;;;;8.87;3.47;;;;;;;28.64;37.13;100105.35;123853;1099;104345;-76
2022/07/09 10:01:32;;;;;;;5.87;3.47;;;;;;;28.69;36.61;100095.21;123760;1099;104313;-75
2022/07/09 10:04:04;;;;;;;4.47;3.23;;;;;;;28.68;36.84;100097.98;123757;1099;104249;-75
2022/07/09 10:06:37;;;;;;;6.60;3.40;;;;;;;28.67;36.80;100099.81;123665;1099;104219;-75
2022/07/09 10:09:08;;;;;;;;;;;;;;;28.71;36.92;100097.84;123886;1099;104345;-75
2022/07/09 10:11:45;;;;;;;7.55;3.70;;;;;;;28.71;36.93;100095.14;123941;1099;104354;-75
2022/07/09 10:14:30;;;;;;;6.33;3.37;;;;;;;28.82;36.65;100097.34;123931;1099;104322;-75
2022/07/09 10:17:17;;;;;;;7.87;3.30;;;;;;;29.02;37.21;100094.58;123744;1099;104264;-75
2022/07/09 10:19:57;;;;;;;6.00;3.30;;;;;;;29.11;36.69;100082.47;123773;1098;104283;-75
2022/07/09 10:22:40;;;;;;;7.37;3.40;;;;;;;28.98;36.18;100105.59;124135;1099;104265;-75
2022/07/09 10:25:15;;;;;;;6.47;3.35;;;;;;;28.75;36.01;100112.06;123890;1099;104348;-75
2022/07/09 10:27:48;;;;;;;6.07;3.70;;;;;;;28.69;36.26;100097.91;123824;1099;104315;-75
2022/07/09 10:30:28;;;;;;;7.07;3.40;;;;;;;28.62;36.46;100096.42;123878;1099;104251;-74
2022/07/09 10:33:08;;;;;;;5.40;3.50;;;;;;;28.64;35.84;100094.55;123662;1099;104463;-75
2022/07/09 10:35:45;;;;;;;5.67;3.50;;;;;;;28.66;36.61;100095.34;123797;1099;104338;-75
2022/07/09 10:38:20;;;;;;;5.87;3.40;;;;;;;28.66;36.45;100103.45;123930;1099;104271;-75
2022/07/09 10:41:01;;;;;;;4.83;3.23;;;;;;;28.64;36.46;100102.66;123768;1099;104362;-75
2022/07/09 10:43:45;;;;;;;6.13;3.43;;;;;;;28.55;36.22;100089.55;124037;1098;104268;-75
2022/07/09 10:46:17;;;;;;;9.33;3.63;;;;;;;28.59;36.41;100093.87;123679;1099;104264;-74
2022/07/09 10:48:50;;;;;;;7.00;3.53;;;;;;;28.69;36.32;100094.34;123762;1099;104226;-75
2022/07/09 10:51:23;;;;;;;4.50;3.60;;;;;;;28.64;36.33;100088.26;123739;1098;104454;-75
2022/07/09 10:53:53;;;;;;;;;;;;;;;28.65;36.33;100090.02;123790;1099;104344;-75
2022/07/09 10:56:25;;;;;;;9.87;3.60;;;;;;;28.67;36.32;100091.72;123712;1099;104243;-75
2022/07/09 10:58:57;;;;;;;7.03;4.07;;;;;;;28.72;36.08;100093.30;123919;1098;104245;-75
2022/07/09 11:01:29;;;;;;;7.80;3.70;;;;;;;28.94;36.33;100099.47;123883;1099;104342;-75
2022/07/09 11:04:01;;;;;;;5.60;3.50;;;;;;;28.99;36.38;100093.86;123766;1099;117789;-75
2022/07/09 11:06:32;;;;;;;8.00;3.63;;;;;;;28.99;35.92;100105.52;123686;1099;104274;-74
2022/07/09 11:09:16;;;;;;;4.33;3.50;;;;;;;28.99;35.62;100097.42;123807;1099;104336;-75
2022/07/09 11:11:48;;;;;;;7.73;4.10;;;;;;;29.09;35.69;100094.28;123775;1099;104281;-74
2022/07/09 11:14:20;;;;;;;7.40;3.80;;;;;;;29.10;35.51;100096.05;123916;1099;104239;-74
2022/07/09 11:16:59;;;;;;;6.30;3.80;;;;;;;29.08;35.52;100088.02;123634;1099;104267;-74
2022/07/09 11:19:33;;;;;;;6.80;3.47;;;;;;;29.19;35.27;100085.70;123699;1099;104348;-74
2022/07/09 11:22:05;;;;;;;6.23;3.60;;;;;;;29.20;34.99;100094.67;123795;1099;104208;-75
2022/07/09 11:24:37;;;;;;;4.27;3.17;;;;;;;29.07;34.86;100086.25;123947;1099;110374;-74
2022/07/09 11:27:10;;;;;;;4.33;3.07;;;;;;;28.98;35.27;100103.76;123285;1099;104384;-74
2022/07/09 11:29:47;;;;;;;12.03;3.70;;;;;;;28.83;35.32;100105.37;123717;1099;104348;-74
2022/07/09 11:32:19;;;;;;;7.50;3.40;;;;;;;28.71;35.32;100102.38;123850;1099;104363;-74